Time;durP1;ratioP1;P1;durP2;ratioP2;P2;SDS_P1;SDS_P2;PMS_P1;PMS_P2;Temp;Humidity;BMP_temperature;BMP_pressure;BME280_temperature;BME280_humidity;BME280_pressure;Samples;Min_cycle;Max_cycle;Signal;HPM_P1;HPM_P2
2021/06/01 00:01:42;;;;;;;;;;;10.50;78.50;;;;;;5084936;28;19913;-68
2021/06/01 00:04:08;;;;;;;;;;;10.50;78.60;;;;;;5083586;28;19912;-68
2021/06/01 00:06:34;;;;;;;;;;;10.50;78.50;;;;;;5088776;28;20003;-68
2021/06/01 00:09:00;;;;;;;;;;;10.50;78.60;;;;;;5068835;28;19916;-69
2021/06/01 00:11:25;;;;;;;;;;;10.50;78.60;;;;;;5089856;28;19912;-68
2021/06/01 00:13:51;;;;;;;;;;;10.50;78.50;;;;;;5070890;28;20638;-67
2021/06/01 00:16:17;;;;;;;;;;;10.50;78.50;;;;;;5095130;28;19924;-68
2021/06/01 00:18:43;;;;;;;;;;;10.60;78.60;;;;;;5091617;28;19912;-69
2021/06/01 00:21:09;;;;;;;;;;;10.60;78.40;;;;;;5093365;28;20240;-68
2021/06/01 00:23:39;;;;;;;;;;;10.60;78.30;;;;;;5085719;28;19920;-68
2021/06/01 00:26:05;;;;;;;;;;;10.60;78.40;;;;;;5085577;28;19981;-70
2021/06/01 00:28:31;;;;;;;;;;;10.60;78.30;;;;;;5064287;28;20321;-69
2021/06/01 00:30:56;;;;;;;;;;;10.50;78.60;;;;;;5088631;28;20034;-68
2021/06/01 00:33:22;;;;;;;;;;;10.50;78.60;;;;;;5096815;28;20304;-68
2021/06/01 00:35:48;;;;;;;;;;;10.50;78.50;;;;;;5093939;28;19916;-68
2021/06/01 00:38:13;;;;;;;;;;;10.50;78.70;;;;;;5095789;28;19912;-69
2021/06/01 00:40:39;;;;;;;;;;;10.50;78.70;;;;;;5095893;28;20330;-69
2021/06/01 00:43:04;;;;;;;;;;;10.50;78.60;;;;;;5078099;28;19916;-69
2021/06/01 00:45:30;;;;;;;;;;;10.50;78.50;;;;;;5095176;28;20323;-69
2021/06/01 00:47:55;;;;;;;;;;;10.50;78.60;;;;;;5087964;28;19950;-69
2021/06/01 00:50:23;;;;;;;;;;;10.50;78.80;;;;;;5095846;28;20278;-70
2021/06/01 00:52:48;;;;;;;;;;;10.50;78.80;;;;;;5095212;28;19912;-69
2021/06/01 00:55:14;;;;;;;;;;;10.40;79.00;;;;;;5089444;28;20281;-69
2021/06/01 00:57:39;;;;;;;;;;;10.40;78.80;;;;;;5097253;28;19923;-68
2021/06/01 01:00:06;;;;;;;;;;;10.40;78.70;;;;;;5093747;28;19977;-69
2021/06/01 01:02:32;;;;;;;;;;;10.40;78.70;;;;;;5095966;28;19912;-69
2021/06/01 01:04:58;;;;;;;;;;;10.30;79.20;;;;;;5095037;28;19919;-69
2021/06/01 01:07:43;;;;;;;;;;;10.30;79.30;;;;;;5077398;28;20246;-69
2021/06/01 01:10:09;;;;;;;;;;;10.30;79.40;;;;;;5093727;28;19912;-69
2021/06/01 01:12:50;;;;;;;;;;;10.20;79.50;;;;;;5082420;28;20320;-69
2021/06/01 01:15:16;;;;;;;;;;;10.20;79.50;;;;;;5089256;28;19928;-69
2021/06/01 01:17:47;;;;;;;;;;;10.20;79.60;;;;;;5095638;28;19912;-69
2021/06/01 01:20:22;;;;;;;;;;;10.20;79.50;;;;;;5092845;28;19912;-69
2021/06/01 01:22:48;;;;;;;;;;;10.20;79.40;;;;;;5094678;28;19978;-69
2021/06/01 01:25:17;;;;;;;;;;;10.20;79.20;;;;;;5089226;28;19973;-69
2021/06/01 01:27:58;;;;;;;;;;;10.20;79.10;;;;;;5090798;28;19963;-69
2021/06/01 01:30:24;;;;;;;;;;;10.20;79.20;;;;;;5088826;28;20006;-69
2021/06/01 01:32:58;;;;;;;;;;;10.20;78.70;;;;;;5093350;28;20020;-69
2021/06/01 01:35:29;;;;;;;;;;;10.20;78.80;;;;;;5063752;28;19913;-69
2021/06/01 01:37:59;;;;;;;;;;;10.20;79.00;;;;;;5095975;28;19920;-70
2021/06/01 01:40:25;;;;;;;;;;;10.10;79.00;;;;;;5093258;28;19972;-69
2021/06/01 01:42:54;;;;;;;;;;;10.10;79.20;;;;;;5089207;28;19954;-69
2021/06/01 01:45:28;;;;;;;;;;;10.00;79.20;;;;;;5094685;28;19923;-69
2021/06/01 01:50:41;;;;;;;;;;;10.00;79.40;;;;;;5088440;28;19973;-69
2021/06/01 01:53:10;;;;;;;;;;;9.90;79.50;;;;;;5095048;28;19912;-69
2021/06/01 01:55:36;;;;;;;;;;;9.90;79.40;;;;;;5094871;28;19998;-69
2021/06/01 01:58:02;;;;;;;;;;;9.90;79.50;;;;;;5080830;28;20015;-69
2021/06/01 02:00:28;;;;;;;;;;;9.90;79.60;;;;;;5098408;28;19912;-68
2021/06/01 02:02:54;;;;;;;;;;;9.90;79.60;;;;;;5092781;28;19966;-69
2021/06/01 02:05:20;;;;;;;;;;;9.90;79.40;;;;;;5092916;28;19977;-68
2021/06/01 02:07:46;;;;;;;;;;;9.90;79.30;;;;;;5097992;28;20379;-69
2021/06/01 02:10:12;;;;;;;;;;;9.90;79.10;;;;;;5098467;28;19920;-69
2021/06/01 02:12:38;;;;;;;;;;;9.90;79.40;;;;;;5093183;28;19919;-69
2021/06/01 02:15:05;;;;;;;;;;;9.90;79.60;;;;;;5097940;28;19921;-69
2021/06/01 02:17:31;;;;;;;;;;;10.00;79.10;;;;;;5098920;28;19919;-69
2021/06/01 02:19:56;;;;;;;;;;;10.10;78.80;;;;;;5099060;28;19915;-69
2021/06/01 02:25:14;;;;;;;;;;;10.10;79.00;;;;;;5093631;28;20312;-68
2021/06/01 02:27:39;;;;;;;;;;;10.00;79.20;;;;;;5078810;28;19916;-68
2021/06/01 02:30:07;;;;;;;;;;;10.00;79.30;;;;;;5098183;28;19912;-68
2021/06/01 02:32:40;;;;;;;;;;;10.00;79.50;;;;;;5097665;28;20002;-69
2021/06/01 02:35:08;;;;;;;;;;;9.90;79.80;;;;;;5098149;28;20198;-68
2021/06/01 02:37:36;;;;;;;;;;;9.80;80.00;;;;;;5097643;28;19920;-68
2021/06/01 02:40:02;;;;;;;;;;;9.90;79.80;;;;;;5080677;28;19912;-69
2021/06/01 02:42:27;;;;;;;;;;;10.00;79.60;;;;;;5098524;28;19912;-68
2021/06/01 02:44:53;;;;;;;;;;;10.00;79.50;;;;;;5097819;28;19922;-69
2021/06/01 02:47:19;;;;;;;;;;;9.90;79.80;;;;;;5093369;28;20216;-69
2021/06/01 02:49:45;;;;;;;;;;;9.90;79.90;;;;;;5098063;28;19916;-68
2021/06/01 02:52:10;;;;;;;;;;;9.80;80.10;;;;;;5097940;28;20170;-68
2021/06/01 02:54:36;;;;;;;;;;;9.80;80.30;;;;;;5097478;28;19912;-69
2021/06/01 02:57:02;;;;;;;;;;;9.80;80.20;;;;;;5082719;28;20272;-69
2021/06/01 02:59:29;;;;;;;;;;;9.80;80.30;;;;;;5090648;28;19912;-69
2021/06/01 03:01:54;;;;;;;;;;;9.80;80.50;;;;;;5096882;28;19994;-68
2021/06/01 03:04:20;;;;;;;;;;;9.70;80.70;;;;;;5093804;28;20007;-69
2021/06/01 03:06:46;;;;;;;;;;;9.70;80.70;;;;;;5066126;28;19920;-69
2021/06/01 03:09:14;;;;;;;;;;;9.70;80.70;;;;;;5084626;28;19920;-69
2021/06/01 03:11:41;;;;;;;;;;;9.70;80.70;;;;;;5086290;28;19955;-69
2021/06/01 03:14:07;;;;;;;;;;;9.70;81.10;;;;;;5083699;28;19936;-68
2021/06/01 03:16:32;;;;;;;;;;;9.70;80.80;;;;;;5073611;28;19920;-69
2021/06/01 03:18:58;;;;;;;;;;;9.80;80.60;;;;;;5073105;28;19981;-69
2021/06/01 03:21:24;;;;;;;;;;;9.80;80.70;;;;;;5071347;28;19920;-69
2021/06/01 03:23:50;;;;;;;;;;;9.80;80.70;;;;;;5073027;28;20522;-70
2021/06/01 03:26:15;;;;;;;;;;;9.70;81.10;;;;;;5072045;28;19924;-69
2021/06/01 03:28:41;;;;;;;;;;;9.70;81.30;;;;;;5072805;28;19924;-70
2021/06/01 03:31:06;;;;;;;;;;;9.70;81.30;;;;;;5072646;28;19997;-68
2021/06/01 03:33:32;;;;;;;;;;;9.70;81.10;;;;;;5073511;28;19921;-69
2021/06/01 03:35:58;;;;;;;;;;;9.70;81.10;;;;;;5070596;28;19956;-69
2021/06/01 03:38:24;;;;;;;;;;;9.70;81.20;;;;;;5072513;28;19924;-69
2021/06/01 03:40:49;;;;;;;;;;;9.70;81.30;;;;;;5072588;28;19939;-69
2021/06/01 03:43:15;;;;;;;;;;;9.70;81.50;;;;;;5071990;28;19912;-69
2021/06/01 03:45:41;;;;;;;;;;;9.70;81.50;;;;;;5070845;28;19919;-69
2021/06/01 03:48:06;;;;;;;;;;;9.70;81.30;;;;;;5072354;28;19935;-70
2021/06/01 03:50:32;;;;;;;;;;;9.70;81.20;;;;;;5072458;28;19960;-69
2021/06/01 03:52:58;;;;;;;;;;;9.70;81.20;;;;;;5077635;28;20256;-69
2021/06/01 03:55:24;;;;;;;;;;;9.70;81.00;;;;;;5071695;28;19966;-69
2021/06/01 03:57:49;;;;;;;;;;;9.90;80.70;;;;;;5071516;28;20297;-69
2021/06/01 04:00:22;;;;;;;;;;;9.90;80.70;;;;;;5072483;28;20297;-70
2021/06/01 04:02:48;;;;;;;;;;;9.90;80.40;;;;;;5053709;28;19919;-69
2021/06/01 04:05:14;;;;;;;;;;;10.00;79.90;;;;;;5071524;28;19920;-69
2021/06/01 04:07:39;;;;;;;;;;;10.10;80.10;;;;;;5069970;28;19924;-69
2021/06/01 04:10:05;;;;;;;;;;;10.10;80.10;;;;;;5071905;28;19920;-69
2021/06/01 04:12:31;;;;;;;;;;;10.00;80.50;;;;;;5070112;28;19959;-69
2021/06/01 04:14:56;;;;;;;;;;;9.90;80.60;;;;;;5071149;28;20028;-70
2021/06/01 04:17:24;;;;;;;;;;;10.00;80.40;;;;;;5071707;28;20019;-69
2021/06/01 04:19:50;;;;;;;;;;;9.90;80.50;;;;;;5070645;28;19931;-69
2021/06/01 04:22:15;;;;;;;;;;;10.00;80.70;;;;;;5069963;28;20596;-69
2021/06/01 04:24:41;;;;;;;;;;;9.90;80.80;;;;;;5053471;28;20087;-70
2021/06/01 04:27:07;;;;;;;;;;;9.90;81.10;;;;;;5071240;28;20015;-69
2021/06/01 04:29:32;;;;;;;;;;;9.90;80.90;;;;;;5071275;28;19912;-70
2021/06/01 04:31:58;;;;;;;;;;;9.90;81.10;;;;;;5070714;28;20015;-69
2021/06/01 04:34:23;;;;;;;;;;;9.90;81.20;;;;;;5072379;28;19932;-69
2021/06/01 04:36:49;;;;;;;;;;;9.90;81.20;;;;;;5069487;28;20003;-70
2021/06/01 04:39:15;;;;;;;;;;;9.90;81.10;;;;;;5070550;28;19926;-70
2021/06/01 04:41:41;;;;;;;;;;;9.90;81.60;;;;;;5070357;28;19920;-69
2021/06/01 04:44:06;;;;;;;;;;;9.90;81.30;;;;;;5070696;28;20309;-70
2021/06/01 04:46:32;;;;;;;;;;;9.90;81.30;;;;;;5070746;28;20313;-69
2021/06/01 04:48:58;;;;;;;;;;;10.00;81.00;;;;;;5072203;28;20230;-71
2021/06/01 04:51:24;;;;;;;;;;;10.00;80.90;;;;;;5068994;28;19913;-69
2021/06/01 04:53:50;;;;;;;;;;;10.10;80.80;;;;;;5071895;28;19947;-69
2021/06/01 04:56:16;;;;;;;;;;;10.10;80.80;;;;;;5074487;28;19919;-69
2021/06/01 04:58:42;;;;;;;;;;;10.10;80.70;;;;;;5052836;28;19912;-70
2021/06/01 05:01:07;;;;;;;;;;;10.10;80.40;;;;;;5070942;28;19913;-69
2021/06/01 05:03:33;;;;;;;;;;;10.20;80.00;;;;;;5071371;28;19963;-69
2021/06/01 05:05:58;;;;;;;;;;;10.40;79.20;;;;;;5070065;28;19920;-70
2021/06/01 05:08:24;;;;;;;;;;;10.60;78.60;;;;;;5070211;28;19923;-69
2021/06/01 05:10:50;;;;;;;;;;;10.70;78.20;;;;;;5070142;28;20022;-69
2021/06/01 05:13:16;;;;;;;;;;;10.80;78.00;;;;;;5070602;28;19955;-69
2021/06/01 05:15:42;;;;;;;;;;;10.90;78.10;;;;;;5078131;28;20380;-68
2021/06/01 05:18:07;;;;;;;;;;;11.00;77.20;;;;;;5080888;28;19931;-69
2021/06/01 05:20:33;;;;;;;;;;;11.10;77.50;;;;;;5078743;28;19931;-69
2021/06/01 05:22:58;;;;;;;;;;;11.10;77.00;;;;;;5080237;28;19920;-69
2021/06/01 05:25:24;;;;;;;;;;;11.30;76.90;;;;;;5078700;28;19912;-69
2021/06/01 05:27:49;;;;;;;;;;;11.40;76.50;;;;;;5080586;28;20250;-71
2021/06/01 05:30:23;;;;;;;;;;;11.40;76.20;;;;;;5079150;28;19973;-71
2021/06/01 05:35:21;;;;;;;;;;;11.60;74.90;;;;;;5081493;28;20041;-70
2021/06/01 05:37:49;;;;;;;;;;;11.80;74.50;;;;;;5076495;28;20332;-70
2021/06/01 05:40:15;;;;;;;;;;;11.90;74.50;;;;;;5079512;28;19923;-70
2021/06/01 05:42:40;;;;;;;;;;;12.00;74.50;;;;;;5082405;28;19912;-70
2021/06/01 05:45:06;;;;;;;;;;;12.10;74.10;;;;;;5080142;28;19916;-70
2021/06/01 05:47:32;;;;;;;;;;;12.20;73.80;;;;;;5063894;28;19931;-70
2021/06/01 05:49:57;;;;;;;;;;;12.40;73.00;;;;;;5078906;28;19918;-69
2021/06/01 05:52:23;;;;;;;;;;;12.50;72.80;;;;;;5085359;28;19919;-70
2021/06/01 05:54:49;;;;;;;;;;;12.60;72.80;;;;;;5089566;28;20206;-70
2021/06/01 05:57:14;;;;;;;;;;;12.80;72.00;;;;;;5086133;28;20248;-70
2021/06/01 05:59:40;;;;;;;;;;;12.90;71.50;;;;;;5079386;28;20316;-69
2021/06/01 06:02:07;;;;;;;;;;;13.00;71.90;;;;;;5062075;28;19920;-70
2021/06/01 06:04:33;;;;;;;;;;;13.10;71.10;;;;;;5079152;28;19912;-69
2021/06/01 06:06:58;;;;;;;;;;;13.30;70.90;;;;;;5082221;28;19928;-70
2021/06/01 06:09:27;;;;;;;;;;;13.30;71.20;;;;;;5080395;28;19920;-70
2021/06/01 06:11:52;;;;;;;;;;;13.40;71.20;;;;;;5084970;28;20301;-70
2021/06/01 06:14:18;;;;;;;;;;;13.50;71.30;;;;;;5081339;28;19919;-70
2021/06/01 06:16:50;;;;;;;;;;;13.60;70.20;;;;;;5061141;28;19927;-70
2021/06/01 06:19:15;;;;;;;;;;;13.70;70.50;;;;;;5062490;28;19966;-70
2021/06/01 06:21:41;;;;;;;;;;;13.80;70.60;;;;;;5059389;28;21400;-69
2021/06/01 06:24:06;;;;;;;;;;;13.90;70.30;;;;;;5064147;28;19999;-70
2021/06/01 06:26:32;;;;;;;;;;;13.90;68.70;;;;;;5060249;28;19920;-70
2021/06/01 06:28:58;;;;;;;;;;;14.00;69.00;;;;;;5056588;28;20294;-69
2021/06/01 06:31:23;;;;;;;;;;;14.10;69.70;;;;;;5062031;28;19920;-69
2021/06/01 06:33:51;;;;;;;;;;;14.20;69.20;;;;;;5061151;28;19917;-70
2021/06/01 06:36:17;;;;;;;;;;;14.30;68.50;;;;;;5054944;28;19920;-70
2021/06/01 06:38:46;;;;;;;;;;;14.40;69.30;;;;;;5064608;28;19924;-70
2021/06/01 06:41:13;;;;;;;;;;;14.40;68.30;;;;;;5056355;28;19966;-70
2021/06/01 06:43:40;;;;;;;;;;;14.50;66.60;;;;;;5059211;28;19917;-69
2021/06/01 06:46:15;;;;;;;;;;;14.60;67.60;;;;;;5058266;28;19947;-70
2021/06/01 06:48:41;;;;;;;;;;;14.70;67.70;;;;;;5064147;28;19917;-70
2021/06/01 06:51:12;;;;;;;;;;;14.80;66.60;;;;;;5058641;28;19913;-70
2021/06/01 06:53:56;;;;;;;;;;;14.80;65.80;;;;;;5064484;28;19912;-70
2021/06/01 06:56:26;;;;;;;;;;;14.90;65.30;;;;;;5060520;28;19978;-70
2021/06/01 06:58:52;;;;;;;;;;;15.00;65.20;;;;;;5070689;28;20308;-69
2021/06/01 07:01:18;;;;;;;;;;;15.10;64.80;;;;;;5060633;28;19927;-70
2021/06/01 07:03:43;;;;;;;;;;;15.20;64.40;;;;;;5058214;28;20285;-70
2021/06/01 07:06:09;;;;;;;;;;;15.30;63.80;;;;;;5062559;28;19928;-69
2021/06/01 07:08:34;;;;;;;;;;;15.30;64.10;;;;;;5066249;28;19916;-70
2021/06/01 07:11:00;;;;;;;;;;;15.40;64.80;;;;;;5065008;28;19920;-70
2021/06/01 07:13:31;;;;;;;;;;;15.60;63.40;;;;;;5059845;28;19999;-70
2021/06/01 07:15:57;;;;;;;;;;;15.60;63.40;;;;;;5070525;28;19928;-70
2021/06/01 07:18:22;;;;;;;;;;;15.60;62.80;;;;;;5071942;28;20297;-70
2021/06/01 07:20:48;;;;;;;;;;;15.70;63.10;;;;;;5069773;28;19943;-70
2021/06/01 07:23:14;;;;;;;;;;;15.90;61.90;;;;;;5070240;28;19927;-70
2021/06/01 07:25:39;;;;;;;;;;;16.50;60.70;;;;;;5068369;28;19916;-69
2021/06/01 07:28:07;;;;;;;;;;;17.30;58.20;;;;;;5069066;28;20019;-70
2021/06/01 07:30:33;;;;;;;;;;;18.30;56.90;;;;;;5068822;28;20039;-70
2021/06/01 07:32:59;;;;;;;;;;;18.80;54.80;;;;;;5069125;28;20016;-69
2021/06/01 07:35:25;;;;;;;;;;;19.10;55.10;;;;;;5071599;28;19952;-70
2021/06/01 07:37:50;;;;;;;;;;;19.70;55.20;;;;;;5071103;28;20479;-70
2021/06/01 07:40:16;;;;;;;;;;;20.10;52.70;;;;;;5072783;28;19974;-70
2021/06/01 07:42:42;;;;;;;;;;;20.40;52.70;;;;;;5073267;28;20310;-69
2021/06/01 07:45:07;;;;;;;;;;;21.00;52.60;;;;;;5071946;28;20018;-70
2021/06/01 07:47:33;;;;;;;;;;;20.90;51.30;;;;;;5071054;28;20018;-70
2021/06/01 07:49:59;;;;;;;;;;;20.90;51.30;;;;;;5072919;28;19939;-70
2021/06/01 07:52:26;;;;;;;;;;;20.70;51.70;;;;;;5075837;28;19912;-70
2021/06/01 07:54:52;;;;;;;;;;;20.70;51.60;;;;;;5076252;28;19912;-69
2021/06/01 07:57:18;;;;;;;;;;;20.50;52.30;;;;;;5076540;28;19920;-71
2021/06/01 07:59:43;;;;;;;;;;;20.60;52.40;;;;;;5076922;28;19962;-70
2021/06/01 08:02:09;;;;;;;;;;;20.70;51.50;;;;;;5074192;28;19928;-71
2021/06/01 08:04:36;;;;;;;;;;;21.30;51.10;;;;;;5071671;28;19913;-70
2021/06/01 08:07:05;;;;;;;;;;;21.60;51.20;;;;;;5070473;28;20024;-70
2021/06/01 08:09:30;;;;;;;;;;;21.80;50.90;;;;;;5071163;28;19919;-69
2021/06/01 08:11:56;;;;;;;;;;;21.20;51.70;;;;;;5072241;28;20002;-70
2021/06/01 08:14:21;;;;;;;;;;;21.40;51.30;;;;;;5072457;28;19920;-69
2021/06/01 08:16:47;;;;;;;;;;;21.30;51.50;;;;;;5084939;28;20269;-69
2021/06/01 08:19:19;;;;;;;;;;;21.80;51.10;;;;;;5081512;28;21405;-69
2021/06/01 08:24:17;;;;;;;;;;;22.30;49.60;;;;;;5082462;28;21535;-71
2021/06/01 08:26:43;;;;;;;;;;;23.10;48.30;;;;;;5082124;28;19920;-70
2021/06/01 08:29:09;;;;;;;;;;;23.20;46.80;;;;;;5080422;28;19944;-71
2021/06/01 08:31:34;;;;;;;;;;;22.90;47.50;;;;;;5077686;28;20297;-71
2021/06/01 08:34:00;;;;;;;;;;;22.90;47.90;;;;;;5078037;28;19959;-71
2021/06/01 08:36:27;;;;;;;;;;;23.10;47.40;;;;;;5080619;28;19966;-70
2021/06/01 08:38:52;;;;;;;;;;;23.20;47.60;;;;;;5083912;28;19982;-70
2021/06/01 08:41:22;;;;;;;;;;;23.50;48.30;;;;;;5069828;28;19920;-70
2021/06/01 08:43:50;;;;;;;;;;;23.90;46.60;;;;;;5082635;28;20007;-70
2021/06/01 08:46:15;;;;;;;;;;;24.10;45.80;;;;;;5077942;28;19921;-70
2021/06/01 08:48:41;;;;;;;;;;;24.20;45.40;;;;;;5083563;28;19923;-71
2021/06/01 08:51:07;;;;;;;;;;;24.50;46.10;;;;;;5078937;28;19916;-70
2021/06/01 08:53:33;;;;;;;;;;;24.40;45.80;;;;;;5083013;28;19968;-70
2021/06/01 08:56:01;;;;;;;;;;;24.10;44.70;;;;;;5077938;28;19916;-71
2021/06/01 08:58:26;;;;;;;;;;;22.50;45.40;;;;;;5081070;28;19976;-69
2021/06/01 09:00:52;;;;;;;;;;;22.50;46.20;;;;;;5083191;28;20019;-71
2021/06/01 09:03:23;;;;;;;;;;;23.20;45.30;;;;;;5096475;28;19912;-71
2021/06/01 09:22:33;;;;;;;;;;;24.50;43.40;;;;;;5093497;28;19916;-71
2021/06/01 09:25:05;;;;;;;;;;;24.50;44.40;;;;;;5076201;28;20078;-71
2021/06/01 09:27:40;;;;;;;;;;;24.60;44.90;;;;;;5077109;28;20007;-70
2021/06/01 09:30:06;;;;;;;;;;;25.20;45.10;;;;;;5058367;28;20011;-71
2021/06/01 09:32:32;;;;;;;;;;;24.90;43.10;;;;;;5092411;28;20320;-71
2021/06/01 09:34:57;;;;;;;;;;;24.70;43.20;;;;;;5096206;28;20003;-71
2021/06/01 09:37:23;;;;;;;;;;;25.20;45.50;;;;;;5061606;28;19919;-71
2021/06/01 09:40:24;;;;;;;;;;;25.70;41.90;;;;;;5075951;28;19919;-71
2021/06/01 09:42:51;;;;;;;;;;;24.80;43.70;;;;;;5014105;28;19918;-71
2021/06/01 09:45:18;;;;;;;;;;;25.10;44.10;;;;;;5063642;28;19908;-70
2021/06/01 09:47:46;;;;;;;;;;;24.90;43.70;;;;;;5094351;28;20007;-71
2021/06/01 09:50:36;;;;;;;;;;;25.40;43.30;;;;;;5095555;28;19918;-71
2021/06/01 09:53:02;;;;;;;;;;;24.90;45.70;;;;;;5094984;28;19924;-71
2021/06/01 09:55:37;;;;;;;;;;;25.20;43.30;;;;;;5095013;28;19912;-71
2021/06/01 09:58:04;;;;;;;;;;;25.60;44.70;;;;;;5082402;28;19912;-71
2021/06/01 10:00:30;;;;;;;;;;;24.70;45.60;;;;;;5087436;28;19920;-71
2021/06/01 10:02:56;;;;;;;;;;;23.50;44.30;;;;;;5075817;28;19912;-71
2021/06/01 10:05:22;;;;;;;;;;;23.00;48.50;;;;;;5082777;28;19916;-71
2021/06/01 10:07:49;;;;;;;;;;;24.10;47.90;;;;;;5095600;28;19947;-71
2021/06/01 10:10:16;;;;;;;;;;;25.40;45.40;;;;;;5094183;28;19920;-71
2021/06/01 10:12:43;;;;;;;;;;;26.10;44.00;;;;;;5095947;28;19912;-71
2021/06/01 10:15:09;;;;;;;;;;;26.00;42.80;;;;;;5094104;28;20031;-72
2021/06/01 10:17:35;;;;;;;;;;;25.60;46.10;;;;;;5089934;28;19948;-71
2021/06/01 10:20:01;;;;;;;;;;;25.80;44.80;;;;;;5095032;28;20347;-71
2021/06/01 10:22:29;;;;;;;;;;;25.60;43.10;;;;;;5098415;28;19943;-71
2021/06/01 10:24:55;;;;;;;;;;;25.70;45.00;;;;;;5098207;28;20325;-71
2021/06/01 10:27:20;;;;;;;;;;;25.30;44.00;;;;;;5099764;28;19963;-71
2021/06/01 10:29:47;;;;;;;;;;;25.40;44.50;;;;;;5098001;28;19998;-71
2021/06/01 10:32:15;;;;;;;;;;;24.70;42.80;;;;;;5080019;28;19916;-71
2021/06/01 10:34:42;;;;;;;;;;;24.10;43.70;;;;;;5099637;28;19915;-71
2021/06/01 10:42:43;;;;;;;;;;;23.90;46.00;;;;;;5097631;28;19922;-70
2021/06/01 10:50:37;;;;;;;;;;;26.50;43.70;;;;;;5089281;28;19923;-71
2021/06/01 10:53:03;;;;;;;;;;;26.40;41.40;;;;;;5097258;28;19966;-71
2021/06/01 10:55:58;;;;;;;;;;;24.80;42.60;;;;;;5099172;28;19935;-71
2021/06/01 10:58:40;;;;;;;;;;;24.60;44.50;;;;;;5085388;28;20437;-70
2021/06/01 11:04:14;;;;;;;;;;;24.30;45.70;;;;;;5088657;28;19919;-71
2021/06/01 11:07:42;;;;;;;;;;;24.30;47.00;;;;;;5091886;28;19908;-70
2021/06/01 11:09:37;;;;;;;;;;;24.50;45.20;;;;;;5084721;28;20002;-70
2021/06/01 11:12:12;;;;;;;;;;;25.30;45.50;;;;;;5096453;28;19997;-69
2021/06/01 11:14:38;;;;;;;;;;;25.60;44.60;;;;;;5094386;28;19920;-70
2021/06/01 11:17:03;;;;;;;;;;;25.60;44.60;;;;;;5093049;28;19916;-71
2021/06/01 11:19:47;;;;;;;;;;;25.30;43.40;;;;;;5097259;28;19923;-71
2021/06/01 11:22:33;;;;;;;;;;;24.90;44.10;;;;;;5095115;28;20003;-72
2021/06/01 11:33:34;;;;;;;;;;;24.80;45.70;;;;;;5087573;28;20005;-71
2021/06/01 11:36:01;;;;;;;;;;;24.60;45.20;;;;;;5077235;28;19955;-71
2021/06/01 11:38:42;;;;;;;;;;;24.90;48.20;;;;;;5061261;28;19920;-71
2021/06/01 11:42:46;;;;;;;;;;;25.50;46.90;;;;;;5082606;28;20283;-71
2021/06/01 11:44:13;;;;;;;;;;;26.20;46.10;;;;;;5093776;28;19999;-71
2021/06/01 11:51:58;;;;;;;;;;;26.40;45.90;;;;;;5041042;28;19912;-71
2021/06/01 11:54:24;;;;;;;;;;;25.80;44.30;;;;;;5097766;28;19962;-71
2021/06/01 12:02:04;;;;;;;;;;;25.90;44.70;;;;;;5080331;28;19962;-71
2021/06/01 12:05:23;;;;;;;;;;;26.00;44.70;;;;;;5077376;28;19908;-71
2021/06/01 12:20:50;;;;;;;;;;;26.90;42.00;;;;;;5087307;28;20105;-71
2021/06/01 12:23:25;;;;;;;;;;;26.90;44.90;;;;;;5077334;28;19995;-71
2021/06/01 12:26:03;;;;;;;;;;;27.10;43.50;;;;;;5096483;28;19912;-71
2021/06/01 12:31:17;;;;;;;;;;;26.30;44.80;;;;;;5093157;28;19931;-71
2021/06/01 12:33:43;;;;;;;;;;;26.90;46.50;;;;;;5095541;28;20011;-71
2021/06/01 12:44:19;;;;;;;;;;;26.40;45.30;;;;;;5094278;28;19953;-71
2021/06/01 13:19:44;;;;;;;;;;;27.20;41.90;;;;;;5086456;28;20150;-71
2021/06/01 13:39:34;;;;;;;;;;;27.30;43.20;;;;;;5091223;28;20003;-71
2021/06/01 13:47:18;;;;;;;;;;;27.80;42.40;;;;;;5094469;28;20385;-71
2021/06/01 13:49:49;;;;;;;;;;;26.70;44.30;;;;;;5095516;28;19912;-72
2021/06/01 13:57:41;;;;;;;;;;;28.10;41.00;;;;;;5095580;28;19965;-70
2021/06/01 14:32:05;;;;;;;;;;;29.60;38.70;;;;;;5084510;28;19919;-70
2021/06/01 15:28:54;;;;;;;;;;;31.90;34.50;;;;;;5087947;28;19966;-71
2021/06/01 15:31:32;;;;;;;;;;;30.60;37.10;;;;;;5077633;28;19916;-70
2021/06/01 15:47:54;;;;;;;;;;;29.50;38.10;;;;;;5097325;28;19985;-71
2021/06/01 16:41:59;;;;;;;;;;;33.50;35.50;;;;;;5096418;28;20235;-70
2021/06/01 17:06:24;;;;;;;;;;;32.30;36.10;;;;;;5085737;28;19999;-71
2021/06/01 17:11:18;;;;;;;;;;;32.00;35.00;;;;;;5084708;28;19923;-70
2021/06/01 17:13:49;;;;;;;;;;;31.30;36.30;;;;;;5087717;28;20304;-71
2021/06/01 17:16:42;;;;;;;;;;;31.30;36.50;;;;;;5068569;28;20473;-71
2021/06/01 17:34:59;;;;;;;;;;;31.40;36.80;;;;;;5095705;28;19912;-70
2021/06/01 17:37:26;;;;;;;;;;;31.70;35.60;;;;;;5094585;28;19960;-70
2021/06/01 17:39:52;;;;;;;;;;;30.90;35.50;;;;;;5087707;28;20003;-70
2021/06/01 17:42:19;;;;;;;;;;;30.80;37.20;;;;;;5092158;28;20201;-71
2021/06/01 17:44:49;;;;;;;;;;;31.00;37.10;;;;;;5070493;28;19913;-71
2021/06/01 17:47:18;;;;;;;;;;;31.00;36.40;;;;;;5095336;28;20297;-70
2021/06/01 17:49:46;;;;;;;;;;;29.80;36.20;;;;;;5093616;28;20216;-70
2021/06/01 17:52:12;;;;;;;;;;;29.70;37.50;;;;;;5094499;28;19999;-70
2021/06/01 17:54:39;;;;;;;;;;;29.90;36.80;;;;;;5094735;28;20328;-70
2021/06/01 17:57:04;;;;;;;;;;;29.90;37.50;;;;;;5095983;28;19908;-70
2021/06/01 17:59:30;;;;;;;;;;;29.90;37.70;;;;;;5090024;28;20189;-69
2021/06/01 18:01:57;;;;;;;;;;;29.80;37.70;;;;;;5075636;28;19923;-68
2021/06/01 18:04:25;;;;;;;;;;;30.00;37.20;;;;;;5079982;28;19974;-68
2021/06/01 18:06:57;;;;;;;;;;;29.80;37.90;;;;;;5086773;28;20219;-68
2021/06/01 18:12:19;;;;;;;;;;;29.30;38.00;;;;;;5090392;28;20262;-67
2021/06/01 18:43:00;;;;;;;;;;;26.70;43.10;;;;;;4997853;28;19913;-68
2021/06/01 19:29:18;;;;;;;;;;;16.00;67.60;;;;;;5086849;28;20320;-68
2021/06/01 19:50:51;;;;;;;;;;;14.70;70.00;;;;;;5095662;28;20262;-69
2021/06/01 19:53:19;;;;;;;;;;;14.70;69.80;;;;;;5095997;28;19912;-67
2021/06/01 19:55:45;;;;;;;;;;;14.60;69.90;;;;;;5098075;28;20258;-68
2021/06/01 19:58:13;;;;;;;;;;;14.70;68.90;;;;;;5085102;28;20305;-68
2021/06/01 20:00:38;;;;;;;;;;;14.70;68.30;;;;;;5082271;28;20228;-68
2021/06/01 20:03:05;;;;;;;;;;;14.90;68.10;;;;;;5090580;28;19916;-67
2021/06/01 20:05:31;;;;;;;;;;;15.00;67.70;;;;;;5105356;28;20397;-68
2021/06/01 20:07:57;;;;;;;;;;;15.00;68.10;;;;;;5099804;28;19916;-67
2021/06/01 20:10:22;;;;;;;;;;;15.00;68.10;;;;;;5097369;28;19912;-68
2021/06/01 20:12:48;;;;;;;;;;;15.00;68.50;;;;;;5095981;28;19912;-68
2021/06/01 20:15:14;;;;;;;;;;;15.00;68.50;;;;;;5096449;28;19972;-68
2021/06/01 20:17:41;;;;;;;;;;;15.00;68.70;;;;;;5097156;28;20275;-68
2021/06/01 20:20:18;;;;;;;;;;;15.00;68.90;;;;;;5096579;28;19965;-69
2021/06/01 20:22:48;;;;;;;;;;;15.00;68.90;;;;;;5077834;28;19912;-68
2021/06/01 20:25:14;;;;;;;;;;;15.10;68.40;;;;;;5097219;28;20251;-68
2021/06/01 20:27:49;;;;;;;;;;;15.20;68.30;;;;;;5096262;28;19916;-68
2021/06/01 20:30:26;;;;;;;;;;;15.20;68.30;;;;;;5097336;28;19915;-68
2021/06/01 20:35:44;;;;;;;;;;;15.20;68.50;;;;;;5091514;28;20125;-68
2021/06/01 20:38:11;;;;;;;;;;;15.10;68.30;;;;;;5097753;28;19957;-68
2021/06/01 20:40:36;;;;;;;;;;;15.10;68.40;;;;;;5103411;28;20313;-68
2021/06/01 20:43:02;;;;;;;;;;;15.00;68.30;;;;;;5096658;28;20013;-69
2021/06/01 20:45:29;;;;;;;;;;;15.00;68.40;;;;;;5095034;28;19916;-68
2021/06/01 20:47:59;;;;;;;;;;;15.00;68.80;;;;;;5098372;28;19923;-68
2021/06/01 20:50:25;;;;;;;;;;;15.10;67.80;;;;;;5096293;28;19912;-68
2021/06/01 20:52:51;;;;;;;;;;;15.10;68.30;;;;;;5099965;28;19912;-68
2021/06/01 20:55:16;;;;;;;;;;;15.00;68.50;;;;;;5095767;28;19918;-68
2021/06/01 20:58:08;;;;;;;;;;;14.90;68.40;;;;;;5095522;28;20204;-69
2021/06/01 21:00:35;;;;;;;;;;;14.90;68.30;;;;;;5061509;28;20266;-69
2021/06/01 21:03:06;;;;;;;;;;;15.00;68.20;;;;;;5078060;28;20260;-68
2021/06/01 21:05:32;;;;;;;;;;;14.90;68.30;;;;;;5094909;28;19954;-68
2021/06/01 21:07:58;;;;;;;;;;;14.80;68.60;;;;;;5082846;28;19960;-70
2021/06/01 21:10:23;;;;;;;;;;;14.80;68.40;;;;;;5114787;28;19918;-68
2021/06/01 21:12:50;;;;;;;;;;;14.80;68.70;;;;;;5101196;28;19919;-69
2021/06/01 21:15:15;;;;;;;;;;;14.80;68.60;;;;;;5094906;28;19924;-69
2021/06/01 21:17:41;;;;;;;;;;;14.80;68.80;;;;;;5091419;28;19920;-67
2021/06/01 21:20:09;;;;;;;;;;;14.80;68.80;;;;;;5074823;28;19916;-68
2021/06/01 21:22:35;;;;;;;;;;;14.70;69.20;;;;;;5059975;28;19920;-69
2021/06/01 21:25:02;;;;;;;;;;;14.60;69.20;;;;;;5089651;28;19920;-68
2021/06/01 21:27:28;;;;;;;;;;;14.70;69.20;;;;;;5083796;28;19919;-68
2021/06/01 21:29:53;;;;;;;;;;;14.70;69.30;;;;;;5086599;28;19921;-68
2021/06/01 21:32:25;;;;;;;;;;;14.60;69.60;;;;;;5089726;28;19969;-68
2021/06/01 21:34:53;;;;;;;;;;;14.60;69.70;;;;;;5090418;28;19923;-69
2021/06/01 21:37:19;;;;;;;;;;;14.60;69.70;;;;;;5088451;28;19931;-67